createdAt,value
2023-05-05T00:01:35.015Z,6.40
2023-05-05T00:04:01.899Z,6.55
2023-05-05T00:06:31.627Z,6.09
2023-05-05T00:08:58.515Z,6.27
2023-05-05T00:11:26.047Z,6.39
2023-05-05T00:13:52.871Z,6.36
2023-05-05T00:16:20.107Z,6.30
2023-05-05T00:18:48.389Z,6.22
2023-05-05T00:21:15.758Z,6.28
2023-05-05T00:23:42.719Z,5.40
2023-05-05T00:26:09.445Z,6.30
2023-05-05T00:28:38.002Z,6.32
2023-05-05T00:31:09.585Z,6.18
2023-05-05T00:33:37.708Z,6.18
2023-05-05T00:36:07.044Z,5.83
2023-05-05T00:38:33.983Z,6.22
2023-05-05T00:41:00.824Z,6.20
2023-05-05T00:43:27.843Z,5.82
2023-05-05T00:46:02.129Z,5.64
2023-05-05T00:48:30.799Z,5.74
2023-05-05T00:50:58.333Z,4.91
2023-05-05T00:53:27.194Z,6.07
2023-05-05T00:55:54.268Z,6.06
2023-05-05T00:58:21.142Z,5.19
2023-05-05T01:00:48.562Z,5.33
2023-05-05T01:03:15.590Z,5.75
2023-05-05T01:06:05.221Z,5.22
2023-05-05T01:08:54.052Z,5.98
2023-05-05T01:11:35.653Z,5.93
2023-05-05T01:14:16.970Z,5.93
2023-05-05T01:16:55.226Z,5.95
2023-05-05T01:19:59.604Z,5.81
2023-05-05T01:22:33.063Z,5.37
2023-05-05T01:25:33.725Z,5.95
2023-05-05T01:28:25.457Z,5.85
2023-05-05T01:31:51.473Z,5.76
2023-05-05T01:34:26.354Z,5.77
2023-05-05T01:37:10.003Z,5.78
2023-05-05T01:39:38.757Z,5.19
2023-05-05T01:42:10.277Z,5.08
2023-05-05T01:44:38.330Z,5.44
2023-05-05T01:47:06.452Z,5.80
2023-05-05T01:49:34.598Z,5.84
2023-05-05T01:52:03.804Z,5.73
2023-05-05T01:54:33.559Z,4.43
2023-05-05T01:57:02.386Z,5.97
2023-05-05T01:59:29.116Z,5.72
2023-05-05T02:01:59.641Z,5.84
2023-05-05T02:04:28.393Z,4.82
2023-05-05T02:06:58.342Z,6.05
2023-05-05T02:09:28.734Z,5.20
2023-05-05T02:11:57.080Z,6.14
2023-05-05T02:14:28.977Z,5.94
2023-05-05T02:16:58.155Z,5.46
2023-05-05T02:19:30.912Z,5.67
2023-05-05T02:21:58.078Z,6.03
2023-05-05T02:24:26.484Z,5.73
2023-05-05T02:26:56.018Z,5.99
2023-05-05T02:29:38.847Z,6.00
2023-05-05T02:32:09.419Z,6.04
2023-05-05T02:34:40.223Z,5.56
2023-05-05T02:37:15.770Z,5.76
2023-05-05T02:39:54.786Z,4.86
2023-05-05T02:42:22.961Z,5.10
2023-05-05T02:44:52.683Z,5.99
2023-05-05T02:47:20.980Z,5.41
2023-05-05T02:49:50.290Z,4.85
2023-05-05T02:52:17.029Z,6.13
2023-05-05T02:54:47.616Z,6.25
2023-05-05T02:57:20.276Z,6.04
2023-05-05T03:00:10.639Z,5.58
2023-05-05T03:02:47.246Z,6.39
2023-05-05T03:05:21.251Z,5.16
2023-05-05T03:08:03.385Z,6.38
2023-05-05T03:10:40.328Z,6.39
2023-05-05T03:13:11.499Z,6.39
2023-05-05T03:15:49.318Z,5.14
2023-05-05T03:18:22.474Z,6.55
2023-05-05T03:20:56.039Z,6.32
2023-05-05T03:23:23.408Z,6.45
2023-05-05T03:25:55.390Z,6.76
2023-05-05T03:28:34.761Z,6.57
2023-05-05T03:31:20.362Z,6.44
2023-05-05T03:33:51.926Z,6.79
2023-05-05T03:36:21.586Z,6.61
2023-05-05T03:38:51.130Z,6.81
2023-05-05T03:41:23.644Z,6.40
2023-05-05T03:43:51.944Z,6.82
2023-05-05T03:46:19.220Z,6.49
2023-05-05T03:48:46.344Z,6.99
2023-05-05T03:51:13.573Z,6.80
2023-05-05T03:53:40.841Z,7.26
2023-05-05T03:56:08.977Z,7.31
2023-05-05T03:58:35.754Z,7.33
2023-05-05T04:01:02.577Z,7.23
2023-05-05T04:03:29.577Z,7.01
2023-05-05T04:05:56.379Z,7.39
2023-05-05T04:08:23.970Z,6.95
2023-05-05T04:10:51.139Z,6.93
2023-05-05T04:13:18.098Z,6.97
2023-05-05T04:15:46.435Z,7.27
2023-05-05T04:18:14.360Z,7.11
2023-05-05T04:20:41.162Z,7.20
2023-05-05T04:23:08.433Z,6.90
2023-05-05T04:25:35.814Z,7.23
2023-05-05T04:28:02.913Z,7.38
2023-05-05T04:30:33.547Z,6.65
2023-05-05T04:33:00.990Z,7.19
2023-05-05T04:35:28.033Z,7.17
2023-05-05T04:37:54.944Z,7.22
2023-05-05T04:40:22.198Z,7.27
2023-05-05T04:42:49.460Z,7.33
2023-05-05T04:45:16.825Z,7.39
2023-05-05T04:47:43.685Z,7.11
2023-05-05T04:50:11.539Z,6.64
2023-05-05T04:52:39.499Z,6.94
2023-05-05T04:55:06.854Z,7.35
2023-05-05T04:57:33.645Z,7.34
2023-05-05T05:00:00.976Z,7.20
2023-05-05T05:02:27.982Z,7.16
2023-05-05T05:04:54.867Z,7.49
2023-05-05T05:07:21.703Z,6.61
2023-05-05T05:09:48.553Z,7.43
2023-05-05T05:12:16.707Z,7.34
2023-05-05T05:14:43.561Z,6.83
2023-05-05T05:17:10.242Z,5.68
2023-05-05T05:19:37.013Z,7.22
2023-05-05T05:22:04.104Z,6.91
2023-05-05T05:24:34.737Z,7.04
2023-05-05T05:27:01.686Z,7.06
2023-05-05T05:29:28.862Z,7.17
2023-05-05T05:31:57.757Z,7.19
2023-05-05T05:34:24.782Z,6.64
2023-05-05T05:36:54.814Z,7.12
2023-05-05T05:39:22.582Z,7.36
2023-05-05T05:41:50.057Z,6.94
2023-05-05T05:44:16.865Z,7.37
2023-05-05T05:46:44.010Z,7.21
2023-05-05T05:49:13.506Z,7.39
2023-05-05T05:51:40.602Z,7.42
2023-05-05T05:54:07.416Z,7.42
2023-05-05T05:56:35.692Z,7.03
2023-05-05T05:59:04.596Z,6.95
2023-05-05T06:01:31.705Z,6.87
2023-05-05T06:03:58.601Z,7.30
2023-05-05T06:06:25.592Z,7.21
2023-05-05T06:08:52.387Z,6.34
2023-05-05T06:11:19.294Z,6.64
2023-05-05T06:13:46.212Z,6.93
2023-05-05T06:16:16.158Z,6.14
2023-05-05T06:18:45.055Z,6.69
2023-05-05T06:21:13.332Z,6.64
2023-05-05T06:23:43.275Z,6.84
2023-05-05T06:26:10.123Z,6.54
2023-05-05T06:28:37.337Z,6.29
2023-05-05T06:31:04.834Z,6.64
2023-05-05T06:33:31.678Z,6.05
2023-05-05T06:35:58.581Z,6.74
2023-05-05T06:38:25.678Z,5.67
2023-05-05T06:40:52.893Z,6.73
2023-05-05T06:43:19.692Z,6.46
2023-05-05T06:45:53.335Z,6.12
2023-05-05T06:48:20.690Z,6.44
2023-05-05T06:50:47.827Z,6.60
2023-05-05T06:53:14.666Z,6.66
2023-05-05T06:55:46.286Z,6.75
2023-05-05T06:58:13.257Z,6.82
2023-05-05T07:00:42.833Z,6.85
2023-05-05T07:03:09.779Z,6.91
2023-05-05T07:05:36.865Z,6.88
2023-05-05T07:08:03.775Z,7.04
2023-05-05T07:10:34.212Z,7.01
2023-05-05T07:13:01.321Z,6.69
2023-05-05T07:15:29.570Z,7.10
2023-05-05T07:17:57.130Z,7.26
2023-05-05T07:20:24.317Z,7.41
2023-05-05T07:22:51.306Z,7.41
2023-05-05T07:25:18.260Z,7.43
2023-05-05T07:27:45.344Z,7.31
2023-05-05T07:30:16.295Z,6.91
2023-05-05T07:32:44.678Z,7.11
2023-05-05T07:35:11.546Z,7.36
2023-05-05T07:37:38.449Z,7.00
2023-05-05T07:40:06.332Z,6.59
2023-05-05T07:42:35.945Z,7.52
2023-05-05T07:45:03.326Z,7.63
2023-05-05T07:47:30.399Z,7.87
2023-05-05T07:49:57.633Z,8.15
2023-05-05T07:52:37.324Z,8.15
2023-05-05T07:55:18.243Z,8.05
2023-05-05T07:57:44.991Z,8.60
2023-05-05T08:00:13.473Z,8.56
2023-05-05T08:02:41.265Z,8.41
2023-05-05T08:05:08.778Z,8.33
2023-05-05T08:07:38.184Z,8.04
2023-05-05T08:10:05.420Z,7.88
2023-05-05T08:12:32.320Z,7.57
2023-05-05T08:14:59.092Z,7.83
2023-05-05T08:17:29.133Z,7.87
2023-05-05T08:19:56.186Z,7.18
2023-05-05T08:22:23.040Z,7.67
2023-05-05T08:24:53.013Z,8.19
2023-05-05T08:27:19.750Z,8.40
2023-05-05T08:29:46.450Z,8.04
2023-05-05T08:32:13.486Z,8.98
2023-05-05T08:34:40.504Z,8.77
2023-05-05T08:37:10.351Z,8.60
2023-05-05T08:39:40.694Z,8.74
2023-05-05T08:42:09.929Z,8.99
2023-05-05T08:44:37.057Z,9.28
2023-05-05T08:47:08.839Z,9.34
2023-05-05T08:49:46.110Z,9.62
2023-05-05T08:52:21.150Z,9.57
2023-05-05T08:54:57.238Z,9.34
2023-05-05T08:57:46.465Z,8.97
2023-05-05T09:00:13.747Z,9.30
2023-05-05T09:02:42.995Z,9.71
2023-05-05T09:05:12.843Z,10.08
2023-05-05T09:07:44.049Z,10.27
2023-05-05T09:10:12.289Z,10.89
2023-05-05T09:12:40.647Z,10.36
2023-05-05T09:15:11.867Z,10.98
2023-05-05T09:17:39.544Z,11.59
2023-05-05T09:20:08.666Z,11.77
2023-05-05T09:22:46.808Z,9.39
2023-05-05T09:25:15.696Z,11.03
2023-05-05T09:27:47.968Z,10.56
2023-05-05T09:30:17.283Z,10.26
2023-05-05T09:32:54.050Z,10.02
2023-05-05T09:35:22.548Z,10.14
2023-05-05T09:37:49.563Z,10.44
2023-05-05T09:40:18.513Z,11.09
2023-05-05T09:42:45.769Z,11.39
2023-05-05T09:45:20.749Z,11.81
2023-05-05T09:47:48.627Z,12.06
2023-05-05T09:50:21.444Z,12.19
2023-05-05T09:52:59.126Z,12.42
2023-05-05T09:55:25.946Z,12.61
2023-05-05T09:57:53.062Z,12.98
2023-05-05T10:00:20.374Z,12.69
2023-05-05T10:02:47.203Z,13.47
2023-05-05T10:05:16.298Z,13.85
2023-05-05T10:07:47.973Z,13.79
2023-05-05T10:10:20.790Z,13.44
2023-05-05T10:12:49.456Z,12.96
2023-05-05T10:15:17.177Z,12.46
2023-05-05T10:18:05.960Z,13.08
2023-05-05T10:20:38.709Z,12.12
2023-05-05T10:23:10.384Z,12.17
2023-05-05T10:25:46.544Z,12.28
2023-05-05T10:28:20.176Z,12.10
2023-05-05T10:30:51.233Z,10.68
2023-05-05T10:33:32.205Z,11.27
2023-05-05T10:36:02.477Z,10.85
2023-05-05T10:38:33.458Z,10.72
2023-05-05T10:41:02.151Z,10.73
2023-05-05T10:43:31.420Z,10.55
2023-05-05T10:45:59.622Z,9.07
2023-05-05T10:49:07.760Z,9.74
2023-05-05T10:51:49.599Z,9.27
2023-05-05T10:54:32.684Z,7.67
2023-05-05T10:57:04.876Z,7.62
2023-05-05T10:59:37.875Z,7.70
2023-05-05T11:02:24.069Z,7.60
2023-05-05T11:05:12.241Z,7.53
2023-05-05T11:07:39.773Z,8.12
2023-05-05T11:10:11.945Z,8.51
2023-05-05T11:12:54.336Z,8.97
2023-05-05T11:15:24.150Z,10.01
2023-05-05T11:17:51.110Z,12.24
2023-05-05T11:20:18.341Z,14.06
2023-05-05T11:23:03.549Z,15.96
2023-05-05T11:25:40.911Z,18.01
2023-05-05T11:28:11.977Z,20.93
2023-05-05T11:30:58.115Z,23.50
2023-05-05T11:33:32.120Z,23.46
2023-05-05T11:36:06.117Z,20.77
2023-05-05T11:38:36.409Z,18.52
2023-05-05T11:41:11.659Z,17.51
2023-05-05T11:43:39.742Z,17.45
2023-05-05T11:46:14.032Z,17.40
2023-05-05T11:48:50.669Z,18.88
2023-05-05T11:51:19.983Z,22.53
2023-05-05T11:53:48.782Z,20.49
2023-05-05T11:56:21.757Z,18.48
2023-05-05T11:58:49.870Z,16.69
2023-05-05T12:01:16.869Z,13.66
2023-05-05T12:03:45.848Z,14.50
2023-05-05T12:06:13.389Z,14.11
2023-05-05T12:08:41.302Z,13.42
2023-05-05T12:11:10.741Z,13.38
2023-05-05T12:13:37.515Z,13.01
2023-05-05T12:16:11.069Z,12.69
2023-05-05T12:18:38.365Z,12.41
2023-05-05T12:21:18.779Z,12.39
2023-05-05T12:23:46.018Z,14.84
2023-05-05T12:26:29.420Z,22.70
2023-05-05T12:28:57.928Z,28.13
2023-05-05T12:31:37.835Z,28.41
2023-05-05T12:34:06.396Z,25.72
2023-05-05T12:36:34.069Z,20.87
2023-05-05T12:39:00.892Z,18.36
2023-05-05T12:41:28.199Z,16.25
2023-05-05T12:43:59.427Z,14.60
2023-05-05T12:46:26.864Z,13.25
2023-05-05T12:49:07.542Z,11.55
2023-05-05T12:51:35.977Z,11.80
2023-05-05T12:54:09.517Z,11.19
2023-05-05T12:56:41.842Z,10.23
2023-05-05T12:59:09.606Z,9.95
2023-05-05T13:01:57.757Z,10.10
2023-05-05T13:04:27.312Z,10.08
2023-05-05T13:07:14.297Z,9.62
2023-05-05T13:09:44.067Z,9.64
2023-05-05T13:12:13.833Z,11.01
2023-05-05T13:14:41.490Z,11.66
2023-05-05T13:17:09.116Z,12.38
2023-05-05T13:19:41.708Z,14.24
2023-05-05T13:22:10.392Z,15.26
2023-05-05T13:24:47.130Z,13.68
2023-05-05T13:27:18.310Z,17.48
2023-05-05T13:29:45.050Z,16.77
2023-05-05T13:32:11.771Z,15.32
2023-05-05T13:34:39.249Z,16.05
2023-05-05T13:37:06.486Z,15.73
2023-05-05T13:39:35.558Z,15.78
2023-05-05T13:42:02.657Z,15.81
2023-05-05T13:44:29.539Z,14.87
2023-05-05T13:46:56.518Z,14.35
2023-05-05T13:49:23.723Z,13.90
2023-05-05T13:51:53.776Z,13.27
2023-05-05T13:54:21.760Z,12.84
2023-05-05T13:56:51.567Z,11.86
2023-05-05T13:59:19.048Z,12.32
2023-05-05T14:01:46.281Z,12.61
2023-05-05T14:04:13.222Z,11.58
2023-05-05T14:06:40.591Z,11.38
2023-05-05T14:09:08.391Z,11.25
2023-05-05T14:11:35.531Z,11.44
2023-05-05T14:14:02.940Z,11.58
2023-05-05T14:16:29.804Z,11.79
2023-05-05T14:18:57.342Z,11.87
2023-05-05T14:21:24.577Z,11.77
2023-05-05T14:23:51.303Z,11.98
2023-05-05T14:26:18.152Z,10.92
2023-05-05T14:28:51.730Z,11.67
2023-05-05T14:31:23.225Z,14.04
2023-05-05T14:33:54.039Z,17.88
2023-05-05T14:36:22.355Z,19.42
2023-05-05T14:38:55.719Z,17.47
2023-05-05T14:41:26.344Z,17.62
2023-05-05T14:43:57.178Z,18.03
2023-05-05T14:46:24.484Z,16.70
2023-05-05T14:48:52.109Z,15.99
2023-05-05T14:51:22.321Z,15.76
2023-05-05T14:53:50.356Z,15.62
2023-05-05T14:56:19.798Z,15.19
2023-05-05T14:58:48.890Z,14.57
2023-05-05T15:01:24.065Z,13.20
2023-05-05T15:03:55.091Z,14.26
2023-05-05T15:06:25.833Z,13.46
2023-05-05T15:08:53.665Z,12.99
2023-05-05T15:11:23.394Z,12.62
2023-05-05T15:13:51.814Z,12.61
2023-05-05T15:16:24.296Z,13.39
2023-05-05T15:18:51.452Z,13.21
2023-05-05T15:21:18.445Z,12.89
2023-05-05T15:23:45.727Z,12.61
2023-05-05T15:26:12.540Z,11.59
2023-05-05T15:28:39.530Z,12.05
2023-05-05T15:31:06.717Z,11.80
2023-05-05T15:33:33.975Z,11.51
2023-05-05T15:36:03.083Z,11.36
2023-05-05T15:38:30.365Z,11.31
2023-05-05T15:40:58.655Z,11.10
2023-05-05T15:43:25.870Z,10.72
2023-05-05T15:45:55.486Z,11.12
2023-05-05T15:48:22.575Z,10.92
2023-05-05T15:50:49.435Z,11.25
2023-05-05T15:53:16.590Z,10.78
2023-05-05T15:55:46.380Z,11.02
2023-05-05T15:58:13.278Z,12.25
2023-05-05T16:00:43.278Z,12.29
2023-05-05T16:03:10.789Z,12.11
2023-05-05T16:05:37.747Z,11.91
2023-05-05T16:08:11.139Z,11.65
2023-05-05T16:10:41.794Z,11.25
2023-05-05T16:13:08.949Z,11.59
2023-05-05T16:15:35.972Z,11.20
2023-05-05T16:18:05.494Z,11.11
2023-05-05T16:20:32.813Z,10.95
2023-05-05T16:22:59.525Z,10.99
2023-05-05T16:25:26.342Z,10.35
2023-05-05T16:27:56.614Z,10.88
2023-05-05T16:30:23.441Z,11.14
2023-05-05T16:32:51.770Z,11.32
2023-05-05T16:35:18.914Z,10.86
2023-05-05T16:37:45.761Z,11.08
2023-05-05T16:40:12.896Z,11.06
2023-05-05T16:42:39.707Z,11.30
2023-05-05T16:45:07.453Z,11.18
2023-05-05T16:47:34.596Z,11.29
2023-05-05T16:50:01.416Z,11.02
2023-05-05T16:52:28.071Z,10.97
2023-05-05T16:54:57.414Z,10.80
2023-05-05T16:57:29.540Z,10.81
2023-05-05T16:59:59.099Z,10.16
2023-05-05T17:02:26.065Z,10.52
2023-05-05T17:04:55.351Z,10.14
2023-05-05T17:07:22.451Z,10.22
2023-05-05T17:09:49.293Z,10.20
2023-05-05T17:12:18.814Z,10.12
2023-05-05T17:14:46.042Z,9.55
2023-05-05T17:17:13.020Z,9.93
2023-05-05T17:19:39.809Z,9.81
2023-05-05T17:22:08.962Z,9.73
2023-05-05T17:24:35.770Z,9.44
2023-05-05T17:27:02.667Z,9.57
2023-05-05T17:29:29.657Z,9.26
2023-05-05T17:31:56.425Z,9.33
2023-05-05T17:34:25.825Z,8.00
2023-05-05T17:36:52.709Z,8.80
2023-05-05T17:39:27.366Z,8.97
2023-05-05T17:41:55.432Z,8.89
2023-05-05T17:44:22.275Z,8.81
2023-05-05T17:46:49.049Z,8.60
2023-05-05T17:49:16.471Z,8.72
2023-05-05T17:51:43.284Z,8.63
2023-05-05T17:54:10.101Z,8.50
2023-05-05T17:56:38.036Z,7.19
2023-05-05T17:59:06.053Z,8.18
2023-05-05T18:01:33.544Z,7.45
2023-05-05T18:04:00.833Z,8.26
2023-05-05T18:06:29.588Z,8.12
2023-05-05T18:08:56.644Z,8.13
2023-05-05T18:11:31.042Z,8.05
2023-05-05T18:14:02.078Z,7.95
2023-05-05T18:16:32.101Z,7.88
2023-05-05T18:19:02.551Z,6.31
2023-05-05T18:21:29.872Z,7.56
2023-05-05T18:24:11.667Z,7.35
2023-05-05T18:26:51.663Z,6.43
2023-05-05T18:29:22.174Z,7.47
2023-05-05T18:31:53.065Z,7.40
2023-05-05T18:34:31.301Z,7.19
2023-05-05T18:37:00.888Z,6.45
2023-05-05T18:39:28.400Z,7.23
2023-05-05T18:41:55.762Z,7.16
2023-05-05T18:44:26.136Z,7.06
2023-05-05T18:46:58.749Z,6.99
2023-05-05T18:49:31.436Z,6.94
2023-05-05T18:52:04.575Z,6.25
2023-05-05T18:54:31.768Z,6.59
2023-05-05T18:57:03.819Z,6.77
2023-05-05T18:59:31.762Z,6.89
2023-05-05T19:01:59.780Z,6.86
2023-05-05T19:04:31.704Z,6.80
2023-05-05T19:07:00.065Z,6.52
2023-05-05T19:09:30.882Z,6.35
2023-05-05T19:11:59.053Z,6.37
2023-05-05T19:14:29.526Z,6.57
2023-05-05T19:17:01.831Z,5.89
2023-05-05T19:19:36.082Z,6.46
2023-05-05T19:22:06.228Z,6.26
2023-05-05T19:24:35.673Z,5.63
2023-05-05T19:27:09.309Z,6.27
2023-05-05T19:29:42.775Z,6.20
2023-05-05T19:32:09.849Z,5.81
2023-05-05T19:34:36.616Z,5.62
2023-05-05T19:37:06.600Z,6.03
2023-05-05T19:39:33.601Z,6.00
2023-05-05T19:42:03.781Z,5.99
2023-05-05T19:44:34.931Z,5.78
2023-05-05T19:47:02.199Z,5.84
2023-05-05T19:49:32.168Z,5.58
2023-05-05T19:52:01.645Z,5.35
2023-05-05T19:54:28.828Z,5.71
2023-05-05T19:56:57.314Z,5.55
2023-05-05T19:59:24.156Z,5.53
2023-05-05T20:01:51.845Z,5.49
2023-05-05T20:04:24.035Z,4.46
2023-05-05T20:07:33.614Z,5.37
2023-05-05T20:10:09.815Z,5.33
2023-05-05T20:12:36.926Z,5.27
2023-05-05T20:15:04.305Z,4.25
2023-05-05T20:17:35.179Z,5.17
2023-05-05T20:20:01.899Z,5.13
2023-05-05T20:22:40.123Z,5.12
2023-05-05T20:25:08.983Z,4.95
2023-05-05T20:27:46.008Z,4.93
2023-05-05T20:30:16.369Z,3.99
2023-05-05T20:32:46.283Z,4.82
2023-05-05T20:35:36.365Z,4.72
2023-05-05T20:38:07.262Z,3.58
2023-05-05T20:40:34.244Z,4.68
2023-05-05T20:43:01.093Z,4.38
2023-05-05T20:45:29.848Z,4.13
2023-05-05T20:47:56.681Z,3.45
2023-05-05T20:50:28.142Z,4.59
2023-05-05T20:52:55.591Z,3.46
2023-05-05T20:55:22.611Z,4.14
2023-05-05T20:57:49.399Z,3.65
2023-05-05T21:00:16.330Z,3.80
2023-05-05T21:02:46.731Z,4.38
2023-05-05T21:05:14.445Z,4.20
2023-05-05T21:07:42.967Z,4.27
2023-05-05T21:10:11.257Z,4.16
2023-05-05T21:12:41.037Z,3.97
2023-05-05T21:15:11.727Z,4.37
2023-05-05T21:17:43.871Z,4.15
2023-05-05T21:20:14.434Z,4.31
2023-05-05T21:22:45.135Z,3.43
2023-05-05T21:25:20.922Z,3.94
2023-05-05T21:27:48.659Z,2.90
2023-05-05T21:30:15.900Z,3.61
2023-05-05T21:32:43.151Z,4.41
2023-05-05T21:35:10.229Z,4.34
2023-05-05T21:37:39.046Z,3.69
2023-05-05T21:40:09.511Z,4.19
2023-05-05T21:42:36.882Z,4.02
2023-05-05T21:45:03.956Z,3.95
2023-05-05T21:47:30.808Z,3.32
2023-05-05T21:49:58.262Z,3.59
2023-05-05T21:52:24.975Z,3.95
2023-05-05T21:54:51.659Z,3.88
2023-05-05T21:57:18.482Z,3.89
2023-05-05T21:59:45.201Z,2.87
2023-05-05T22:02:12.112Z,3.18
2023-05-05T22:04:38.983Z,3.86
2023-05-05T22:07:05.795Z,3.85
2023-05-05T22:09:32.472Z,3.85
2023-05-05T22:11:59.562Z,3.64
2023-05-05T22:14:26.337Z,3.65
2023-05-05T22:16:53.055Z,3.49
2023-05-05T22:19:19.825Z,3.68
2023-05-05T22:21:48.661Z,3.89
2023-05-05T22:24:15.436Z,3.82
2023-05-05T22:26:44.408Z,3.77
2023-05-05T22:29:11.342Z,3.23
2023-05-05T22:31:41.470Z,3.42
2023-05-05T22:34:08.454Z,3.79
2023-05-05T22:36:42.910Z,3.74
2023-05-05T22:39:10.322Z,3.75
2023-05-05T22:41:43.909Z,3.34
2023-05-05T22:44:10.709Z,3.77
2023-05-05T22:46:37.544Z,3.76
2023-05-05T22:49:04.312Z,3.33
2023-05-05T22:51:34.658Z,3.18
2023-05-05T22:54:01.592Z,2.97
2023-05-05T22:56:28.348Z,3.48
2023-05-05T22:58:56.367Z,3.06
2023-05-05T23:01:23.724Z,3.73
2023-05-05T23:03:50.549Z,3.30
2023-05-05T23:06:20.729Z,3.03
2023-05-05T23:08:48.927Z,3.72
2023-05-05T23:11:15.709Z,3.51
2023-05-05T23:13:42.584Z,2.75
2023-05-05T23:16:09.325Z,2.92
2023-05-05T23:18:36.627Z,3.59
2023-05-05T23:21:03.820Z,3.16
2023-05-05T23:23:31.157Z,3.16
2023-05-05T23:25:57.949Z,3.51
2023-05-05T23:28:24.797Z,3.43
2023-05-05T23:30:51.582Z,3.42
2023-05-05T23:33:18.327Z,2.82
2023-05-05T23:35:45.605Z,1.94
2023-05-05T23:38:12.352Z,3.04
2023-05-05T23:40:39.053Z,2.97
2023-05-05T23:43:06.040Z,3.02
2023-05-05T23:45:32.771Z,1.96
2023-05-05T23:47:59.546Z,2.92
2023-05-05T23:50:27.818Z,1.56
2023-05-05T23:52:54.800Z,2.81
2023-05-05T23:55:21.714Z,2.39
2023-05-05T23:57:48.678Z,2.37
